Progress Software Net Profit Margin 2010-2024 | PRGS

Progress Software net profit margin from 2010 to 2024. Net profit margin can be defined as net Income as a portion of total sales revenue.
Progress Software Net Profit Margin Historical Data
Date TTM Revenue TTM Net Income Net Margin
2024-02-29 $0.72B $0.07B 9.65%
2023-11-30 $0.69B $0.07B 10.09%
2023-08-31 $0.67B $0.08B 11.72%
2023-05-31 $0.65B $0.08B 12.62%
2023-02-28 $0.62B $0.10B 15.94%
2022-11-30 $0.60B $0.10B 15.78%
2022-08-31 $0.59B $0.09B 14.70%
2022-05-31 $0.58B $0.10B 16.35%
2022-02-28 $0.55B $0.08B 14.44%
2021-11-30 $0.53B $0.08B 14.91%
2021-08-31 $0.51B $0.08B 16.02%
2021-05-31 $0.48B $0.08B 15.79%
2021-02-28 $0.45B $0.08B 17.22%
2020-11-30 $0.44B $0.08B 18.10%
2020-08-31 $0.44B $0.06B 13.04%
2020-05-31 $0.43B $0.05B 10.83%
2020-02-29 $0.43B $0.04B 8.76%
2019-11-30 $0.41B $0.03B 6.28%
2019-08-31 $0.40B $0.04B 10.13%
2019-05-31 $0.38B $0.04B 10.50%
2019-02-28 $0.37B $0.05B 12.03%
2018-11-30 $0.38B $0.05B 13.19%
2018-08-31 $0.39B $0.05B 12.60%
2018-05-31 $0.39B $0.05B 11.70%
2018-02-28 $0.39B $0.04B 10.94%
2017-11-30 $0.39B $0.03B 7.20%
2017-08-31 $0.40B $-0.05B -13.53%
2017-05-31 $0.40B $-0.06B -14.11%
2017-02-28 $0.41B $-0.06B -14.74%
2016-11-30 $0.41B $-0.06B -13.83%
2016-08-31 $0.40B $0.01B 2.25%
2016-05-31 $0.39B $-0.00B -0.76%
2016-02-29 $0.39B $-0.00B -1.04%
2015-11-30 $0.38B $-0.01B -2.12%
2015-08-31 $0.36B $0.02B 4.13%
2015-05-31 $0.35B $0.03B 8.65%
2015-02-28 $0.34B $0.04B 10.91%
2014-11-30 $0.33B $0.05B 14.71%
2014-08-31 $0.33B $0.05B 15.34%
2014-05-31 $0.33B $0.06B 19.69%
2014-02-28 $0.33B $0.06B 16.87%
2013-11-30 $0.34B $0.08B 22.39%
2013-08-31 $0.33B $0.10B 29.45%
2013-05-31 $0.32B $0.08B 23.91%
2013-02-28 $0.31B $0.07B 22.61%
2012-11-30 $0.32B $0.05B 14.83%
2012-08-31 $0.33B $0.02B 6.99%
2012-05-31 $0.38B $0.03B 6.84%
2012-02-29 $0.44B $0.05B 10.43%
2011-11-30 $0.49B $0.06B 12.30%
2011-08-31 $0.54B $0.07B 12.80%
2011-05-31 $0.54B $0.07B 12.71%
2011-02-28 $0.54B $0.07B 13.06%
2010-11-30 $0.53B $0.05B 9.06%
2010-08-31 $0.52B $0.04B 8.43%
2010-05-31 $0.51B $0.04B 8.01%
2010-02-28 $0.50B $0.03B 5.79%
2009-11-30 $0.49B $0.03B 6.88%
Sector Industry Market Cap Revenue
Computer and Technology Computer Software $2.115B $0.694B
Progress offers the leading platform for developing and deploying mission-critical business applications. Progress empowers enterprises and ISVs to build and deliver cognitive-first applications that harness big data to derive business insights and competitive advantage. Progress offers leading technologies for easily building powerful user interfaces across any type of device, a reliable, scalable and secure backend platform to deploy modern applications, leading data connectivity to all sources, and award-winning predictive analytics that brings the power of machine learning to any organization.
Stock Name Country Market Cap PE Ratio
Microsoft (MSFT) United States $3342.903B 38.94
Oracle (ORCL) United States $389.954B 31.66
Adobe (ADBE) United States $238.981B 38.27
Salesforce (CRM) United States $237.463B 35.36
Intuit (INTU) United States $176.716B 55.06
Synopsys (SNPS) United States $92.777B 63.94
Cadence Design Systems (CDNS) United States $86.737B 82.48
Autodesk (ADSK) United States $52.220B 47.60
Dassault Systemes SA (DASTY) France $49.576B 32.21
ANSYS (ANSS) United States $28.403B 52.56
MicroStrategy (MSTR) United States $26.318B 0.00
PTC (PTC) United States $21.212B 56.26
SS&C Technologies Holdings (SSNC) United States $15.396B 14.58
Manhattan Associates (MANH) United States $14.784B 78.47
Descartes Systems Group (DSGX) Canada $8.060B 67.42
Open Text (OTEX) Canada $8.013B 8.16
Trend Micro (TMICY) Japan $5.572B 40.36
CommVault Systems (CVLT) United States $5.194B 84.87
Pegasystems (PEGA) United States $5.001B 44.23
ACI Worldwide (ACIW) United States $3.916B 18.76
Blackbaud (BLKB) United States $3.909B 33.65
Verint Systems (VRNT) United States $2.110B 19.76
Sapiens (SPNS) Israel $1.861B 25.38
BlackBerry (BB) Canada $1.357B 0.00
PROS Holdings (PRO) United States $1.343B 0.00
Simulations Plus (SLP) United States $0.962B 70.81
Rand Worldwide (RWWI) United States $0.650B 0.00
Magic Software Enterprises (MGIC) Israel $0.496B 10.52
Canaan (CAN) China $0.311B 0.00
American Software (AMSWA) United States $0.290B 24.91
OptimizeRx (OPRX) United States $0.193B 0.00
Rigetti Computing (RGTI) United States $0.164B 0.00
Icad Inc (ICAD) United States $0.038B 0.00
Neonode (NEON) Sweden $0.035B 0.00
NetSol Technologies (NTWK) United States $0.030B 0.00
Wetouch Technology (WETH) $0.028B 0.00
Smith Micro Software (SMSI) United States $0.022B 0.00
Hanryu Holdings (HRYU) South Korea $0.014B 0.00
GSE Systems (GVP) United States $0.011B 0.00
SAP SE (SAP) Germany $0.000B 49.66